Aeroporto :







RITROVATECI SU...

 
LOGIN :

Iscrizione | Disclaimer

   EN    FR    IT 

 









Sommario :    VFR   VFR Marginale   IFR   IFR Intensivo   IFR Molto Intensivo
Visibilità : 
Base nubi : 
>= 8 km
>= 3000ft
5 / 8 km
1000 / 3000 ft
1500m / 5 km
500 / 1000 ft
800 / 1500m
200 / 500 ft
< 800m
< 200 ft
Simboli :   Temporali  Nebbia  Neve Forte  Precipitazioni Forti  Vento > 20 kt






- Altitudine del aeroporto : 577 ft


KVSF - Hartness State (Springfield)

ULTIMO METAR :
  • 121254Z AUTO 23009KT 10SM BKN028 BKN037 25/19 A2959 RMK AO2 SLP017 T02500189

METARs OBSOLETI :
  • 121214Z AUTO 24010KT 10SM BKN028 24/18 A2959 RMK AO2 T02390183
  • 121154Z AUTO 24008KT 190V250 10SM FEW031 SCT040 SCT055 24/19 A2958 RMK AO2 RAB16E26 SLP012 P0000 60000 T02440189 10244 20222 53013
  • 121054Z AUTO 21006KT 10SM OVC033 23/18 A2956 RMK AO2 SLP005 T02330183
  • 121043Z AUTO 23008KT 10SM SCT025 OVC035 23/18 A2955 RMK AO2 T02280183

TAF N/A
FIR KZBW / America del Nord



MetMap, La meteo Aeronautica in un colpo d'occhio ! - Copyright ORBIFLY Dicembre 2007 - Disclaimer

ORBIFLY MET'MAP TEAM :

Programmazione e sviluppo : Alexandra Zaïnal
Concezione : Baudouin d'Aumeries
Aiuto per la programmazione : Marc-Olivier Méhu
Supporto tecnico e logistico : Manuel Goepfert
Aiuto per la traduzione : Arnaldo La Scala

Contatto : metmap@orbifly.com




FONTI E CREDITI :

   NOAA